Little Diomede, Alaska
Current Conditions -  °F | °C
As of 6:58 PM on Saturday 25 Oct 2014 (Local Time) from PATE Reporting Station
Scattered Clouds Scattered Clouds  
Wind Chill: 19°   Ceiling: Unl
Heat Index: 28°   Visibility: 10mi
Dew Point: 25°   Wind: 9mph
Humidity: 88%   Direction: 180°S
Pressure: 29.55"   Gusts: NA
Location:  65.1617°N, 164.975°W
Report Text: PATE 260258Z AUTO 18008KT 10SM FEW090 SCT120 M02/M04 A2955 RMK AO2 SLP018 60000 T10221039 58002 FZRANO
Loading
Personal Weather Stations






























Interactive Weather Map
Tropical Storm Tracking
New forecast layout! Learn more

10-Day Weather Forecast

Advertisements
Track Severe Weather on mobile